WetterOnline ( https://www.wetteronline.de )

Wetter aktuell Palermo

Aktuelles Wetter: Trapani/Birgi (14m)

6-stündlich | Neueste Meldungen
Ortszeit Temperatur Wetter
Mo, 25.01. 1:00 13.0° C leicht bewölkt
So, 24.01. 19:00 13.4° C leicht bewölkt
So, 24.01. 13:00 14.0° C bewölkt
So, 24.01. 7:00 12.8° C wolkig
So, 24.01. 1:00 13.0° C wolkig
Sa, 23.01. 19:00 13.0° C leichter Regen
Sa, 23.01. 13:00 15.2° C leicht bewölkt
Sa, 23.01. 7:00 14.0° C wolkig
Ortszeit Temperatur Wetter
Mo, 25.01. 2:00 13.0° C leicht bewölkt
Mo, 25.01. 1:55 13° C leicht bewölkt
Mo, 25.01. 1:00 13.0° C leicht bewölkt
Mo, 25.01. 0:55 13° C leicht bewölkt
Mo, 25.01. 0:00 13.0° C leicht bewölkt
So, 24.01. 23:55 13° C leicht bewölkt
So, 24.01. 23:00 13.0° C fast wolkenlos
So, 24.01. 22:55 13° C leicht bewölkt
So, 24.01. 21:55 13° C leicht bewölkt
Ortszeit Relative Feuchte Sichtweite
Mo, 25.01. 1:00 62% 14 km
So, 24.01. 19:00 82% 12 km
So, 24.01. 13:00 78% 16 km
So, 24.01. 7:00 85% 12 km
So, 24.01. 1:00 76% 12 km
Sa, 23.01. 19:00 81% 14 km
Sa, 23.01. 13:00 62% 18 km
Sa, 23.01. 7:00 85% 10 km
Ortszeit Relative Feuchte Sichtweite
Mo, 25.01. 2:00 65% 14 km
Mo, 25.01. 1:55 67% >10 km
Mo, 25.01. 1:00 62% 14 km
Mo, 25.01. 0:55 62% >10 km
Mo, 25.01. 0:00 55% 14 km
So, 24.01. 23:55 54% >10 km
So, 24.01. 23:00 57% 14 km
So, 24.01. 22:55 58% >10 km
So, 24.01. 21:55 67% >10 km
Ortszeit Niederschlagsmenge Niederschlagsart
Mo, 25.01. 1:00 0.0 l/m2 in 6 Std. -
So, 24.01. 19:00 3 l/m2 in 12 Std. Regen
So, 24.01. 13:00 0.4 l/m2 in 6 Std. Regen
So, 24.01. 7:00 0.0 l/m2 in 12 Std. -
So, 24.01. 1:00 0.0 l/m2 in 6 Std. -
Sa, 23.01. 19:00 0.1 l/m2 in 12 Std. Regen
Sa, 23.01. 13:00 0.0 l/m2 in 6 Std. -
Sa, 23.01. 7:00 0.0 l/m2 in 12 Std. -
Ortszeit Niederschlagsmenge Niederschlagsart
Mo, 25.01. 2:00 keine Meldung -
Mo, 25.01. 1:55 keine Meldung -
Mo, 25.01. 1:00 keine Meldung -
Mo, 25.01. 0:55 keine Meldung -
Mo, 25.01. 0:00 keine Meldung -
So, 24.01. 23:55 keine Meldung -
So, 24.01. 23:00 keine Meldung -
So, 24.01. 22:55 keine Meldung -
So, 24.01. 21:55 keine Meldung -
Ortszeit Stärke Spitze Richtung
km/h Bft. km/h Grad Sektor
Mo, 25.01. 1:00 31 5 - 310° NW
So, 24.01. 19:00 33 5 - 270° W
So, 24.01. 13:00 39 6 - 220° SW
So, 24.01. 7:00 17 3 - 180° S
So, 24.01. 1:00 33 5 - 260° W
Sa, 23.01. 19:00 28 4 - 260° W
Sa, 23.01. 13:00 35 5 - 270° W
Sa, 23.01. 7:00 26 4 - 270° W
Ortszeit Stärke Spitze Richtung
km/h Bft. km/h Grad Sektor
Mo, 25.01. 2:00 30 5 - 310° NW
Mo, 25.01. 1:55 30 5 - 310° NW
Mo, 25.01. 1:00 31 5 - 310° NW
Mo, 25.01. 0:55 31 5 - 310° NW
Mo, 25.01. 0:00 39 6 - 310° NW
So, 24.01. 23:55 39 6 - 310° NW
So, 24.01. 23:00 33 5 - 310° NW
So, 24.01. 22:55 33 5 - 310° NW
So, 24.01. 21:55 41 6 - 300° NW
Ortszeit Untergrenze Bedeckung Gattung
total tief tief mittel hoch
Mo, 25.01. 1:00 750 m 4/8 3/8 Cu Ac -
So, 24.01. 19:00 750 m 3/8 3/8 Cu - -
So, 24.01. 13:00 600 m 8/8 5/8 Cu Ac -
So, 24.01. 7:00 750 m 7/8 3/8 Sc As -
So, 24.01. 1:00 900 m 6/8 6/8 Sc - -
Sa, 23.01. 19:00 600 m 5/8 5/8 Cu - -
Sa, 23.01. 13:00 750 m 4/8 3/8 Cu Ac -
Sa, 23.01. 7:00 600 m 6/8 3/8 Cb Ac -
Ortszeit Bedeckungsgrad in Achtel und Wolkenuntergrenze
Mo, 25.01. 2:00 3(750m)
Mo, 25.01. 1:55 3-4(750m)
Mo, 25.01. 1:00 3(750m)
Mo, 25.01. 0:55 3-4(750m)
Mo, 25.01. 0:00 3(750m)
So, 24.01. 23:55 3-4(750m)
So, 24.01. 23:00 1(750m)
So, 24.01. 22:55 1-2(750m)
So, 24.01. 21:55 1-2(750m)
Ortszeit Luftdruck NN (hPa) Tendenz (hPa in 3 Std.)
Mo, 25.01. 1:00 1012 + 2,8
So, 24.01. 19:00 1006 + 2,1
So, 24.01. 13:00 1006 - 1,7
So, 24.01. 7:00 1009 - 2,0
So, 24.01. 1:00 1012 - 1,2
Sa, 23.01. 19:00 1013 + 0,9
Sa, 23.01. 13:00 1012 + 0,4
Sa, 23.01. 7:00 1010 0,0
Ortszeit Luftdruck NN (hPa) Tendenz (hPa in 3 Std.)
Mo, 25.01. 2:00 1011 + 0,5
Mo, 25.01. 1:55 1010 keine Meldung
Mo, 25.01. 1:00 1012 + 2,8
Mo, 25.01. 0:55 1011 keine Meldung
Mo, 25.01. 0:00 1011 + 3,4
So, 24.01. 23:55 1011 keine Meldung
So, 24.01. 23:00 1010 + 3,3
So, 24.01. 22:55 1010 keine Meldung
So, 24.01. 21:55 1008 keine Meldung
Ortszeit Schneehöhe (cm)
Mo, 25.01. 1:00 -
So, 24.01. 19:00 -
So, 24.01. 13:00 -
So, 24.01. 7:00 -
So, 24.01. 1:00 -
Sa, 23.01. 19:00 -
Sa, 23.01. 13:00 -
Sa, 23.01. 7:00 -
Ortszeit Schneehöhe (cm)
Mo, 25.01. 2:00 -
Mo, 25.01. 1:55 -
Mo, 25.01. 1:00 -
Mo, 25.01. 0:55 -
Mo, 25.01. 0:00 -
So, 24.01. 23:55 -
So, 24.01. 23:00 -
So, 24.01. 22:55 -
So, 24.01. 21:55 -
Link zu dieser Seite / Seite empfehlen

Das Wetter in ...